createdAt,value
2018-06-09T00:02:01.638Z,20.11
2018-06-09T00:04:31.384Z,20.14
2018-06-09T00:07:01.162Z,20.17
2018-06-09T00:09:30.874Z,20.13
2018-06-09T00:12:00.638Z,20.16
2018-06-09T00:14:30.492Z,20.16
2018-06-09T00:17:00.683Z,20.05
2018-06-09T00:19:30.736Z,20.08
2018-06-09T00:22:00.457Z,20.12
2018-06-09T00:24:30.230Z,20.19
2018-06-09T00:27:00.084Z,20.28
2018-06-09T00:29:29.839Z,20.29
2018-06-09T00:31:59.534Z,20.29
2018-06-09T00:34:29.246Z,20.27
2018-06-09T00:36:58.999Z,20.25
2018-06-09T00:39:28.674Z,20.16
2018-06-09T00:41:58.431Z,20.07
2018-06-09T00:44:28.187Z,19.99
2018-06-09T00:46:57.970Z,19.91
2018-06-09T00:49:27.681Z,19.88
2018-06-09T00:51:57.150Z,19.85
2018-06-09T00:54:26.976Z,19.83
2018-06-09T00:56:56.887Z,19.84
2018-06-09T00:59:26.571Z,19.89
2018-06-09T01:01:56.480Z,20.01
2018-06-09T01:04:26.088Z,20.01
2018-06-09T01:06:55.813Z,20.03
2018-06-09T01:09:25.708Z,19.97
2018-06-09T01:11:56.028Z,20.01
2018-06-09T01:14:25.823Z,20.05
2018-06-09T01:16:55.694Z,20.00
2018-06-09T01:19:25.439Z,20.02
2018-06-09T01:21:55.189Z,20.01
2018-06-09T01:24:25.080Z,20.02
2018-06-09T01:26:54.781Z,19.92
2018-06-09T01:29:24.517Z,19.91
2018-06-09T01:31:54.200Z,19.88
2018-06-09T01:34:23.975Z,19.88
2018-06-09T01:36:53.748Z,19.89
2018-06-09T01:39:23.459Z,19.79
2018-06-09T01:41:53.199Z,19.82
2018-06-09T01:44:23.010Z,19.86
2018-06-09T01:46:52.962Z,19.93
2018-06-09T01:49:22.728Z,19.92
2018-06-09T01:51:52.463Z,19.90
2018-06-09T01:54:22.204Z,19.88
2018-06-09T01:56:51.900Z,19.86
2018-06-09T01:59:21.816Z,19.92
2018-06-09T02:01:51.604Z,19.91
2018-06-09T02:04:21.474Z,19.88
2018-06-09T02:06:51.218Z,19.84
2018-06-09T02:09:21.631Z,19.81
2018-06-09T02:11:51.306Z,19.79
2018-06-09T02:14:21.120Z,19.74
2018-06-09T02:16:50.903Z,19.68
2018-06-09T02:19:20.621Z,19.62
2018-06-09T02:21:50.187Z,19.55
2018-06-09T02:24:19.863Z,19.49
2018-06-09T02:26:49.783Z,19.44
2018-06-09T02:29:19.492Z,19.34
2018-06-09T02:31:49.169Z,19.27
2018-06-09T02:34:18.968Z,19.20
2018-06-09T02:36:48.701Z,19.14
2018-06-09T02:39:18.546Z,19.13
2018-06-09T02:41:48.264Z,19.07
2018-06-09T02:44:18.096Z,19.03
2018-06-09T02:46:47.939Z,18.98
2018-06-09T02:49:17.913Z,18.98
2018-06-09T02:51:47.637Z,19.03
2018-06-09T02:54:17.346Z,19.09
2018-06-09T02:56:47.062Z,19.24
2018-06-09T02:59:16.816Z,19.33
2018-06-09T03:01:46.512Z,19.36
2018-06-09T03:04:16.429Z,19.41
2018-06-09T03:06:46.228Z,19.50
2018-06-09T03:09:15.943Z,19.58
2018-06-09T03:11:45.805Z,19.62
2018-06-09T03:14:15.577Z,19.71
2018-06-09T03:16:45.511Z,19.77
2018-06-09T03:19:15.692Z,19.84
2018-06-09T03:21:45.380Z,19.92
2018-06-09T03:24:15.100Z,20.00
2018-06-09T03:26:44.950Z,20.13
2018-06-09T03:29:14.739Z,20.25
2018-06-09T03:31:44.443Z,20.46
2018-06-09T03:34:14.155Z,20.61
2018-06-09T03:36:43.927Z,20.81
2018-06-09T03:39:13.745Z,20.93
2018-06-09T03:41:43.603Z,21.05
2018-06-09T03:44:13.387Z,21.26
2018-06-09T03:46:43.191Z,21.45
2018-06-09T03:49:12.914Z,21.60
2018-06-09T03:51:42.671Z,21.73
2018-06-09T03:54:12.145Z,21.84
2018-06-09T03:56:41.948Z,21.90
2018-06-09T03:59:11.684Z,21.96
2018-06-09T04:01:41.481Z,22.03
2018-06-09T04:04:11.990Z,22.14
2018-06-09T04:06:41.741Z,22.23
2018-06-09T04:09:12.254Z,22.31
2018-06-09T04:11:41.974Z,22.37
2018-06-09T04:14:12.118Z,22.43
2018-06-09T04:16:41.821Z,22.58
2018-06-09T04:19:12.133Z,22.68
2018-06-09T04:21:42.380Z,22.76
2018-06-09T04:24:12.274Z,22.87
2018-06-09T04:26:42.531Z,22.99
2018-06-09T04:29:12.338Z,23.11
2018-06-09T04:31:43.308Z,23.20
2018-06-09T04:34:13.202Z,23.30
2018-06-09T04:36:42.902Z,23.40
2018-06-09T04:39:12.727Z,23.52
2018-06-09T04:41:42.538Z,23.71
2018-06-09T04:44:12.249Z,23.84
2018-06-09T04:46:42.028Z,24.00
2018-06-09T04:49:11.784Z,24.18
2018-06-09T04:51:41.709Z,24.39
2018-06-09T04:54:12.026Z,24.63
2018-06-09T04:56:42.464Z,24.89
2018-06-09T04:59:12.982Z,25.14
2018-06-09T05:01:43.526Z,25.28
2018-06-09T05:04:13.898Z,25.37
2018-06-09T05:06:44.773Z,25.87
2018-06-09T05:09:15.274Z,26.32
2018-06-09T05:11:45.350Z,26.75
2018-06-09T05:14:15.804Z,27.12
2018-06-09T05:16:46.529Z,27.45
2018-06-09T05:19:16.846Z,27.75
2018-06-09T05:21:47.646Z,27.97
2018-06-09T05:24:17.955Z,28.32
2018-06-09T05:26:48.263Z,28.65
2018-06-09T05:29:18.583Z,29.01
2018-06-09T05:31:48.858Z,29.05
2018-06-09T05:34:19.248Z,28.80
2018-06-09T05:36:49.576Z,28.78
2018-06-09T05:39:20.158Z,28.94
2018-06-09T05:41:50.532Z,28.97
2018-06-09T05:44:20.876Z,28.53
2018-06-09T05:46:51.228Z,28.98
2018-06-09T05:49:21.339Z,29.34
2018-06-09T05:51:51.707Z,29.16
2018-06-09T05:54:22.087Z,29.59
2018-06-09T05:56:52.502Z,29.76
2018-06-09T05:59:22.872Z,30.04
2018-06-09T06:01:53.295Z,30.33
2018-06-09T06:04:23.675Z,30.84
2018-06-09T06:06:53.962Z,31.41
2018-06-09T06:09:24.235Z,31.95
2018-06-09T06:11:54.535Z,32.50
2018-06-09T06:14:25.640Z,33.39
2018-06-09T06:16:55.937Z,34.05
2018-06-09T06:19:26.243Z,34.85
2018-06-09T06:21:56.597Z,35.72
2018-06-09T06:24:26.900Z,36.32
2018-06-09T06:26:57.342Z,36.76
2018-06-09T06:29:27.610Z,37.10
2018-06-09T06:31:58.118Z,37.27
2018-06-09T06:34:28.294Z,37.42
2018-06-09T06:36:58.466Z,37.20
2018-06-09T06:39:28.790Z,37.57
2018-06-09T06:41:59.115Z,38.00
2018-06-09T06:44:29.438Z,38.22
2018-06-09T06:46:59.483Z,38.10
2018-06-09T06:49:29.227Z,37.87
2018-06-09T06:52:00.614Z,37.94
2018-06-09T06:54:31.137Z,37.99
2018-06-09T06:57:02.083Z,38.37
2018-06-09T06:59:32.054Z,38.24
2018-06-09T07:02:02.132Z,38.32
2018-06-09T07:04:32.125Z,38.47
2018-06-09T07:07:02.270Z,38.27
2018-06-09T07:09:32.634Z,38.00
2018-06-09T07:12:02.963Z,37.77
2018-06-09T07:14:33.326Z,37.34
2018-06-09T07:17:03.908Z,37.27
2018-06-09T07:19:34.281Z,37.67
2018-06-09T07:22:04.602Z,37.63
2018-06-09T07:24:34.902Z,37.07
2018-06-09T07:27:05.167Z,36.99
2018-06-09T07:29:35.866Z,37.09
2018-06-09T07:32:06.292Z,37.20
2018-06-09T07:34:36.564Z,37.41
2018-06-09T07:37:06.893Z,37.76
2018-06-09T07:39:37.360Z,37.97
2018-06-09T07:42:07.789Z,38.14
2018-06-09T07:44:38.060Z,38.16
2018-06-09T07:47:08.368Z,38.72
2018-06-09T07:49:38.928Z,38.77
2018-06-09T07:52:09.494Z,38.96
2018-06-09T07:54:39.875Z,38.27
2018-06-09T07:57:10.272Z,37.39
2018-06-09T07:59:40.602Z,37.37
2018-06-09T08:02:10.983Z,38.31
2018-06-09T08:04:41.301Z,38.72
2018-06-09T08:07:12.135Z,39.55
2018-06-09T08:09:42.521Z,40.59
2018-06-09T08:12:12.576Z,41.49
2018-06-09T08:14:42.585Z,42.24
2018-06-09T08:17:12.630Z,42.36
2018-06-09T08:19:42.765Z,43.11
2018-06-09T08:22:12.919Z,43.37
2018-06-09T08:24:42.899Z,43.99
2018-06-09T08:27:12.955Z,43.42
2018-06-09T08:29:43.415Z,42.25
2018-06-09T08:32:13.823Z,41.28
2018-06-09T08:34:44.316Z,41.48
2018-06-09T08:37:14.392Z,41.26
2018-06-09T08:39:44.357Z,40.69
2018-06-09T08:42:14.367Z,40.98
2018-06-09T08:44:44.941Z,41.41
2018-06-09T08:47:15.078Z,42.03
2018-06-09T08:49:45.060Z,42.12
2018-06-09T08:52:15.141Z,41.53
2018-06-09T08:54:45.509Z,40.80
2018-06-09T08:57:15.827Z,39.74
2018-06-09T08:59:46.130Z,38.51
2018-06-09T09:02:16.428Z,37.61
2018-06-09T09:04:46.738Z,36.86
2018-06-09T09:07:17.003Z,36.40
2018-06-09T09:09:47.782Z,35.73
2018-06-09T09:12:18.205Z,35.40
2018-06-09T09:14:48.525Z,35.45
2018-06-09T09:17:18.884Z,36.32
2018-06-09T09:19:49.136Z,37.00
2018-06-09T09:22:19.492Z,37.41
2018-06-09T09:24:49.800Z,37.27
2018-06-09T09:27:20.070Z,37.60
2018-06-09T09:29:50.438Z,38.54
2018-06-09T09:32:21.151Z,38.37
2018-06-09T09:34:51.510Z,37.80
2018-06-09T09:37:21.803Z,36.69
2018-06-09T09:39:52.114Z,36.48
2018-06-09T09:42:22.527Z,36.17
2018-06-09T09:44:52.806Z,36.05
2018-06-09T09:47:23.118Z,36.02
2018-06-09T09:49:53.460Z,36.07
2018-06-09T09:52:23.839Z,36.12
2018-06-09T09:54:53.921Z,36.33
2018-06-09T09:57:24.476Z,36.12
2018-06-09T09:59:54.556Z,36.33
2018-06-09T10:02:24.916Z,36.10
2018-06-09T10:04:55.203Z,35.65
2018-06-09T10:07:25.474Z,35.15
2018-06-09T10:09:55.795Z,34.59
2018-06-09T10:12:26.109Z,34.16
2018-06-09T10:14:56.452Z,34.26
2018-06-09T10:17:26.828Z,34.32
2018-06-09T10:19:57.445Z,34.45
2018-06-09T10:22:27.896Z,34.50
2018-06-09T10:24:58.251Z,34.25
2018-06-09T10:27:29.260Z,34.18
2018-06-09T10:30:01.461Z,34.27
2018-06-09T10:32:31.836Z,34.37
2018-06-09T10:35:02.287Z,34.24
2018-06-09T10:37:32.771Z,34.05
2018-06-09T10:40:03.121Z,33.74
2018-06-09T10:42:33.629Z,33.29
2018-06-09T10:45:04.077Z,33.32
2018-06-09T10:47:34.384Z,33.42
2018-06-09T10:50:04.736Z,33.38
2018-06-09T10:52:35.151Z,33.38
2018-06-09T10:55:05.912Z,33.45
2018-06-09T10:57:36.455Z,33.48
2018-06-09T11:00:07.206Z,33.49
2018-06-09T11:02:37.523Z,33.46
2018-06-09T11:05:07.863Z,33.33
2018-06-09T11:07:38.371Z,33.45
2018-06-09T11:10:09.878Z,33.29
2018-06-09T11:12:40.455Z,33.22
2018-06-09T11:15:10.951Z,33.02
2018-06-09T11:17:41.340Z,32.91
2018-06-09T11:20:11.678Z,32.94
2018-06-09T11:22:42.208Z,32.94
2018-06-09T11:25:12.581Z,33.20
2018-06-09T11:27:42.880Z,33.07
2018-06-09T11:30:13.378Z,32.92
2018-06-09T11:32:44.786Z,33.06
2018-06-09T11:35:15.235Z,33.23
2018-06-09T11:37:45.492Z,33.01
2018-06-09T11:40:15.903Z,32.80
2018-06-09T11:42:46.209Z,32.80
2018-06-09T11:45:17.235Z,32.80
2018-06-09T11:47:47.720Z,32.75
2018-06-09T11:50:18.343Z,32.64
2018-06-09T11:52:48.956Z,32.53
2018-06-09T11:55:19.313Z,32.62
2018-06-09T11:57:49.763Z,32.76
2018-06-09T12:00:20.151Z,32.81
2018-06-09T12:02:51.094Z,32.80
2018-06-09T12:05:21.403Z,32.80
2018-06-09T12:07:51.804Z,32.41
2018-06-09T12:10:22.159Z,32.33
2018-06-09T12:12:52.669Z,32.23
2018-06-09T12:15:23.136Z,31.98
2018-06-09T12:17:53.504Z,32.00
2018-06-09T12:20:23.792Z,32.10
2018-06-09T12:22:54.176Z,32.14
2018-06-09T12:25:24.456Z,32.06
2018-06-09T12:27:54.780Z,32.13
2018-06-09T12:30:25.104Z,32.34
2018-06-09T12:32:55.537Z,32.61
2018-06-09T12:35:25.989Z,32.62
2018-06-09T12:37:56.360Z,32.44
2018-06-09T12:40:26.781Z,32.16
2018-06-09T12:42:57.051Z,32.00
2018-06-09T12:45:27.518Z,31.69
2018-06-09T12:47:57.873Z,31.63
2018-06-09T12:50:28.400Z,31.54
2018-06-09T12:52:58.733Z,31.47
2018-06-09T12:55:29.864Z,31.69
2018-06-09T12:58:00.404Z,31.92
2018-06-09T13:00:30.824Z,32.13
2018-06-09T13:03:04.236Z,32.37
2018-06-09T13:05:34.778Z,32.44
2018-06-09T13:08:05.053Z,32.59
2018-06-09T13:10:35.537Z,32.63
2018-06-09T13:13:05.895Z,32.47
2018-06-09T13:15:36.299Z,32.28
2018-06-09T13:18:06.590Z,32.28
2018-06-09T13:20:36.954Z,32.13
2018-06-09T13:23:07.008Z,32.20
2018-06-09T13:25:37.666Z,32.23
2018-06-09T13:28:08.021Z,32.05
2018-06-09T13:30:38.375Z,32.05
2018-06-09T13:33:08.835Z,32.12
2018-06-09T13:35:39.173Z,32.20
2018-06-09T13:38:09.618Z,32.18
2018-06-09T13:40:40.539Z,32.14
2018-06-09T13:43:10.881Z,32.05
2018-06-09T13:45:41.242Z,32.02
2018-06-09T13:48:11.589Z,32.06
2018-06-09T13:50:42.127Z,32.27
2018-06-09T13:53:12.487Z,32.35
2018-06-09T13:55:42.782Z,32.27
2018-06-09T13:58:13.149Z,32.20
2018-06-09T14:00:43.484Z,32.01
2018-06-09T14:03:13.806Z,31.91
2018-06-09T14:05:44.115Z,32.00
2018-06-09T14:08:14.604Z,32.18
2018-06-09T14:10:46.186Z,32.23
2018-06-09T14:13:16.552Z,32.18
2018-06-09T14:15:47.010Z,32.20
2018-06-09T14:18:17.451Z,31.76
2018-06-09T14:20:47.739Z,31.31
2018-06-09T14:23:18.099Z,30.18
2018-06-09T14:25:48.395Z,29.31
2018-06-09T14:28:19.646Z,28.57
2018-06-09T14:30:49.963Z,28.07
2018-06-09T14:33:20.407Z,27.67
2018-06-09T14:35:51.347Z,27.14
2018-06-09T14:38:21.767Z,26.90
2018-06-09T14:40:52.188Z,26.64
2018-06-09T14:43:22.575Z,26.63
2018-06-09T14:45:52.835Z,26.62
2018-06-09T14:48:23.376Z,26.67
2018-06-09T14:50:53.650Z,26.60
2018-06-09T14:53:24.243Z,26.53
2018-06-09T14:55:54.673Z,26.54
2018-06-09T14:58:24.713Z,26.49
2018-06-09T15:00:55.460Z,26.50
2018-06-09T15:03:25.788Z,26.62
2018-06-09T15:05:56.039Z,26.62
2018-06-09T15:08:27.167Z,26.61
2018-06-09T15:10:57.451Z,26.69
2018-06-09T15:13:27.920Z,26.83
2018-06-09T15:15:58.238Z,27.00
2018-06-09T15:18:28.813Z,27.03
2018-06-09T15:20:59.257Z,27.13
2018-06-09T15:23:29.617Z,27.23
2018-06-09T15:26:00.116Z,27.33
2018-06-09T15:28:30.403Z,27.43
2018-06-09T15:31:00.739Z,27.51
2018-06-09T15:33:31.011Z,27.58
2018-06-09T15:36:01.388Z,27.70
2018-06-09T15:38:31.763Z,27.80
2018-06-09T15:41:03.355Z,27.83
2018-06-09T15:43:33.781Z,27.86
2018-06-09T15:46:04.121Z,27.85
2018-06-09T15:48:34.448Z,27.84
2018-06-09T15:51:04.785Z,27.83
2018-06-09T15:53:35.628Z,27.74
2018-06-09T15:56:06.869Z,27.67
2018-06-09T15:58:37.235Z,27.60
2018-06-09T16:01:07.630Z,27.54
2018-06-09T16:03:38.361Z,27.52
2018-06-09T16:06:08.632Z,27.38
2018-06-09T16:08:39.192Z,27.35
2018-06-09T16:11:09.487Z,27.25
2018-06-09T16:13:39.829Z,27.24
2018-06-09T16:16:10.340Z,27.24
2018-06-09T16:18:40.641Z,27.17
2018-06-09T16:21:10.962Z,27.16
2018-06-09T16:23:41.301Z,27.10
2018-06-09T16:26:11.793Z,27.03
2018-06-09T16:28:42.363Z,26.92
2018-06-09T16:31:12.935Z,26.81
2018-06-09T16:33:43.390Z,26.72
2018-06-09T16:36:13.880Z,26.72
2018-06-09T16:38:44.304Z,26.75
2018-06-09T16:41:14.621Z,26.87
2018-06-09T16:43:44.956Z,26.87
2018-06-09T16:46:15.292Z,26.84
2018-06-09T16:48:45.867Z,26.89
2018-06-09T16:51:16.252Z,26.85
2018-06-09T16:53:46.703Z,26.88
2018-06-09T16:56:17.995Z,26.87
2018-06-09T16:58:48.332Z,26.91
2018-06-09T17:01:18.831Z,26.98
2018-06-09T17:03:49.180Z,27.09
2018-06-09T17:06:19.556Z,27.15
2018-06-09T17:08:49.870Z,27.21
2018-06-09T17:11:20.264Z,27.24
2018-06-09T17:13:50.567Z,27.26
2018-06-09T17:16:20.914Z,27.24
2018-06-09T17:18:51.343Z,27.25
2018-06-09T17:21:21.758Z,27.29
2018-06-09T17:23:52.983Z,27.24
2018-06-09T17:26:23.255Z,27.21
2018-06-09T17:28:53.786Z,27.23
2018-06-09T17:31:24.367Z,27.26
2018-06-09T17:33:54.709Z,27.17
2018-06-09T17:36:25.075Z,27.07
2018-06-09T17:38:55.489Z,26.97
2018-06-09T17:41:25.935Z,26.97
2018-06-09T17:43:56.292Z,26.98
2018-06-09T17:46:28.380Z,26.88
2018-06-09T17:48:58.879Z,26.90
2018-06-09T17:51:29.259Z,26.82
2018-06-09T17:53:59.645Z,26.62
2018-06-09T17:56:30.157Z,26.54
2018-06-09T17:59:01.929Z,26.34
2018-06-09T18:01:32.302Z,26.15
2018-06-09T18:04:02.902Z,26.07
2018-06-09T18:06:33.242Z,25.95
2018-06-09T18:09:04.444Z,25.81
2018-06-09T18:11:34.751Z,25.73
2018-06-09T18:14:05.203Z,25.63
2018-06-09T18:16:35.544Z,25.49
2018-06-09T18:19:06.073Z,25.33
2018-06-09T18:21:36.498Z,25.24
2018-06-09T18:24:06.270Z,25.15
2018-06-09T18:26:36.602Z,25.08
2018-06-09T18:29:08.183Z,25.05
2018-06-09T18:31:38.533Z,25.01
2018-06-09T18:34:08.820Z,25.06
2018-06-09T18:36:39.281Z,24.98
2018-06-09T18:39:10.164Z,25.06
2018-06-09T18:41:40.664Z,25.11
2018-06-09T18:44:11.009Z,25.15
2018-06-09T18:46:40.788Z,25.21
2018-06-09T18:49:11.122Z,25.18
2018-06-09T18:51:41.374Z,25.08
2018-06-09T18:54:11.289Z,24.91
2018-06-09T18:56:41.654Z,24.76
2018-06-09T18:59:12.004Z,24.67
2018-06-09T19:01:42.027Z,24.76
2018-06-09T19:04:12.502Z,24.75
2018-06-09T19:06:42.917Z,24.74
2018-06-09T19:09:13.241Z,24.77
2018-06-09T19:11:42.968Z,24.85
2018-06-09T19:14:12.734Z,24.81
2018-06-09T19:16:42.467Z,24.78
2018-06-09T19:19:12.965Z,24.73
2018-06-09T19:21:43.584Z,24.67
2018-06-09T19:24:13.368Z,24.63
2018-06-09T19:26:43.130Z,24.55
2018-06-09T19:29:12.991Z,24.49
2018-06-09T19:31:43.009Z,24.45
2018-06-09T19:34:13.038Z,24.39
2018-06-09T19:36:42.889Z,24.34
2018-06-09T19:39:12.675Z,24.35
2018-06-09T19:41:43.007Z,24.29
2018-06-09T19:44:13.324Z,24.35
2018-06-09T19:46:43.687Z,24.39
2018-06-09T19:49:15.224Z,24.33
2018-06-09T19:51:45.669Z,24.18
2018-06-09T19:54:16.173Z,24.10
2018-06-09T19:56:46.486Z,24.04
2018-06-09T19:59:17.024Z,24.07
2018-06-09T20:01:47.470Z,24.11
2018-06-09T20:04:17.786Z,23.96
2018-06-09T20:06:48.255Z,23.85
2018-06-09T20:09:18.576Z,23.95
2018-06-09T20:11:48.385Z,23.92
2018-06-09T20:14:18.281Z,23.84
2018-06-09T20:16:48.720Z,23.91
2018-06-09T20:19:20.099Z,24.04
2018-06-09T20:21:50.646Z,24.08
2018-06-09T20:24:22.801Z,24.05
2018-06-09T20:26:53.162Z,24.04
2018-06-09T20:29:23.900Z,24.00
2018-06-09T20:31:54.287Z,23.90
2018-06-09T20:34:24.675Z,23.88
2018-06-09T20:36:55.771Z,23.77
2018-06-09T20:39:26.691Z,23.67
2018-06-09T20:44:24.565Z,23.36
2018-06-09T20:46:55.004Z,23.37
2018-06-09T20:49:27.478Z,23.39
2018-06-09T20:51:58.212Z,23.42
2018-06-09T20:54:28.786Z,23.32
2018-06-09T20:57:00.409Z,23.25
2018-06-09T20:59:31.098Z,23.14
2018-06-09T21:02:01.940Z,23.00
2018-06-09T21:04:32.071Z,22.91
2018-06-09T21:07:02.477Z,22.89
2018-06-09T21:09:32.963Z,22.84
2018-06-09T21:12:03.427Z,22.84
2018-06-09T21:14:35.650Z,22.82
2018-06-09T21:17:06.911Z,22.73
2018-06-09T21:19:37.313Z,22.81
2018-06-09T21:22:09.884Z,22.77
2018-06-09T21:24:40.370Z,22.68
2018-06-09T21:28:19.800Z,22.64
2018-06-09T21:30:57.185Z,22.43
2018-06-09T21:33:47.089Z,22.29
2018-06-09T21:36:21.559Z,22.21
2018-06-09T21:38:56.545Z,22.30
2018-06-09T21:41:32.032Z,22.27
2018-06-09T21:45:04.855Z,22.22
2018-06-09T21:47:35.202Z,22.26
2018-06-09T21:50:07.958Z,22.08
2018-06-09T21:52:37.723Z,22.01
2018-06-09T21:55:07.641Z,21.92
2018-06-09T21:57:38.453Z,21.87
2018-06-09T22:00:10.345Z,21.83
2018-06-09T22:02:40.814Z,21.78
2018-06-09T22:05:10.576Z,21.73
2018-06-09T22:07:43.197Z,21.65
2018-06-09T22:10:15.342Z,21.63
2018-06-09T22:12:46.772Z,21.55
2018-06-09T22:15:17.104Z,21.48
2018-06-09T22:17:46.947Z,21.51
2018-06-09T22:20:20.129Z,21.61
2018-06-09T22:22:49.955Z,21.66
2018-06-09T22:25:25.070Z,21.64
2018-06-09T22:27:55.919Z,21.63
2018-06-09T22:30:26.278Z,21.66
2018-06-09T22:32:55.993Z,21.67
2018-06-09T22:35:27.408Z,21.62
2018-06-09T22:38:00.972Z,21.58
2018-06-09T22:40:31.199Z,21.58
2018-06-09T22:43:00.734Z,21.60
2018-06-09T22:45:34.109Z,21.58
2018-06-09T22:48:06.353Z,21.60
2018-06-09T22:50:37.282Z,21.46
2018-06-09T22:53:07.761Z,21.39
2018-06-09T22:55:37.518Z,21.34
2018-06-09T22:58:08.055Z,21.37
2018-06-09T23:00:52.100Z,21.44
2018-06-09T23:03:21.804Z,21.42
2018-06-09T23:05:52.192Z,21.51
2018-06-09T23:08:23.319Z,21.57
2018-06-09T23:10:55.194Z,21.55
2018-06-09T23:13:26.060Z,21.51
2018-06-09T23:15:55.853Z,21.45
2018-06-09T23:18:27.088Z,21.37
2018-06-09T23:21:00.553Z,21.31
2018-06-09T23:23:30.359Z,21.38
2018-06-09T23:26:00.105Z,21.56
2018-06-09T23:28:31.692Z,21.40
2018-06-09T23:31:01.835Z,21.29
2018-06-09T23:33:31.682Z,21.12
2018-06-09T23:36:01.531Z,21.08
2018-06-09T23:38:31.873Z,21.02
2018-06-09T23:43:36.140Z,21.15
2018-06-09T23:46:06.095Z,21.11
2018-06-09T23:48:36.274Z,21.21
2018-06-09T23:51:08.615Z,20.98
2018-06-09T23:53:38.982Z,20.79
2018-06-09T23:56:08.929Z,20.84
2018-06-09T23:58:39.955Z,20.64
